createdAt,value
2022-09-30T12:09:06.166Z,138234.38
2022-09-30T12:10:06.134Z,138234.38
2022-09-30T12:11:06.128Z,138234.38
2022-09-30T12:12:06.097Z,138234.38
2022-09-30T12:13:06.080Z,138234.38
2022-09-30T12:14:06.073Z,138234.38
2022-09-30T12:15:06.059Z,138234.38
2022-09-30T12:16:06.096Z,138234.38
2022-09-30T12:17:06.022Z,138234.38
2022-09-30T12:18:06.008Z,138234.38
2022-09-30T12:19:05.990Z,138234.38
2022-09-30T12:20:05.977Z,138234.38
2022-09-30T12:21:05.972Z,138234.38
2022-09-30T12:22:05.941Z,138234.38
2022-09-30T12:23:05.916Z,138234.38
2022-09-30T12:24:05.917Z,138234.38
2022-09-30T12:25:05.949Z,138234.38
2022-09-30T12:26:05.897Z,138234.38
2022-09-30T12:27:05.861Z,138234.38
2022-09-30T12:28:05.884Z,138234.38
2022-09-30T12:29:05.829Z,138234.38
2022-09-30T12:30:05.814Z,138234.38
2022-09-30T12:31:05.821Z,138234.38
2022-09-30T12:32:05.814Z,138234.38
2022-09-30T12:33:05.782Z,138234.38
2022-09-30T12:34:05.758Z,138234.38
2022-09-30T12:35:05.755Z,138234.38
2022-09-30T12:36:05.752Z,138234.38
2022-09-30T12:37:05.725Z,138234.38
2022-09-30T12:38:05.701Z,138234.38
2022-09-30T12:39:05.688Z,138234.38
2022-09-30T12:40:05.747Z,138234.38
2022-09-30T12:41:05.678Z,138234.38
2022-09-30T12:42:05.643Z,138234.38
2022-09-30T12:43:05.641Z,138234.38
2022-09-30T12:44:05.628Z,138234.38
2022-09-30T12:45:05.603Z,138234.38
2022-09-30T12:46:05.688Z,138234.38
2022-09-30T12:52:07.304Z,368634.38
2022-09-30T12:57:00.570Z,3043.13
2022-09-30T12:58:00.483Z,607.50
2022-09-30T12:59:00.475Z,725.63
2022-09-30T13:00:00.465Z,911.25
2022-09-30T13:01:00.543Z,2435.63
2022-09-30T13:02:00.477Z,2666.25
2022-09-30T13:03:00.442Z,2638.13
2022-09-30T13:04:00.398Z,2503.13
2022-09-30T13:05:00.391Z,2503.13
2022-09-30T13:06:00.372Z,2581.88
2022-09-30T13:07:00.381Z,1023.75
2022-09-30T13:08:00.357Z,2075.63
2022-09-30T13:09:01.166Z,2092.50
2022-09-30T13:10:00.323Z,2671.88
2022-09-30T13:11:36.222Z,1473.75
2022-09-30T13:12:36.182Z,725.63
2022-09-30T13:13:36.175Z,2373.75
2022-09-30T13:14:36.175Z,2587.50
2022-09-30T13:15:36.153Z,2581.88
2022-09-30T13:16:36.614Z,2525.63
2022-09-30T13:17:36.148Z,2463.75
2022-09-30T13:18:36.106Z,2368.13
2022-09-30T13:19:36.101Z,2520.00
2022-09-30T13:20:36.082Z,2407.50
2022-09-30T13:21:36.062Z,2508.75
2022-09-30T13:22:36.076Z,2598.75
2022-09-30T13:49:59.782Z,2430.00
2022-09-30T13:50:59.766Z,2491.88
2022-09-30T13:51:59.747Z,2497.50
2022-09-30T13:52:59.746Z,2480.63
2022-09-30T13:53:59.717Z,2733.75
2022-09-30T13:54:59.692Z,2626.88
2022-09-30T13:55:59.676Z,2278.13
2022-09-30T13:56:59.682Z,2300.63
2022-09-30T13:57:59.647Z,2278.13
2022-09-30T13:58:59.637Z,2250.00
2022-09-30T13:59:59.639Z,2008.13
2022-09-30T14:00:59.698Z,1091.25
2022-09-30T14:01:59.617Z,478.13
2022-09-30T14:23:14.004Z,1850.63
2022-09-30T14:24:13.974Z,1850.63
2022-09-30T14:25:13.964Z,1777.50
2022-09-30T14:26:13.945Z,1726.88
2022-09-30T14:27:13.949Z,1676.25
2022-09-30T14:28:14.121Z,1614.38
2022-09-30T14:29:13.916Z,1535.63
2022-09-30T14:30:13.901Z,1513.13
2022-09-30T14:31:14.092Z,1468.13
2022-09-30T14:32:13.907Z,1417.50
2022-09-30T14:33:13.865Z,1411.88
2022-09-30T14:34:13.858Z,1350.00
2022-09-30T14:36:45.416Z,1260.00
2022-09-30T14:37:45.392Z,1276.88
2022-09-30T14:38:45.380Z,1293.75
2022-09-30T14:39:45.373Z,1327.50
2022-09-30T14:40:45.362Z,1254.38
2022-09-30T14:41:45.401Z,866.25
2022-09-30T14:42:45.347Z,472.50
2022-09-30T14:43:45.332Z,365.63
2022-09-30T14:44:45.324Z,326.25
2022-09-30T14:45:45.351Z,309.38
